CSUN Campus Station - National Weather Service Data Page - PST Time




                Date      RH     Dew  Seasonal     Current   Max Air   Min Air    Wind    Wind    Wind    Gust     Bar    Rain
                Time       %   Point      Rain    Air Temp     Since     Since   Speed    Gust     Dir     Dir   Press   Total
                               Deg F    Inches       Deg F  Midnight  Midnight     MPH     MPH                      mb  Inches
------------------------------------------------------------------------------------------------------------------------------
    04/29/2016 00:00      78    46.6      8.88        53.4      72.8      47.5       0       0       0     347    1013    0.00
    04/29/2016 00:10      79    46.5      8.88        53.0      53.2      52.6       0       0     162     161    1013    0.00
    04/29/2016 00:20      80    46.9      8.88        52.9      53.2      52.6       0       1     297     298    1014    0.00
    04/29/2016 00:30      80    46.9      8.88        53.0      53.2      52.6       0       1     276     276    1014    0.00
    04/29/2016 00:40      80    46.8      8.88        52.9      53.2      52.6       0       0     289     275    1014    0.00
    04/29/2016 00:50      80    46.9      8.88        52.9      53.2      52.6       0       1     355     340    1014    0.00
    04/29/2016 01:00      80    47.0      8.88        52.9      53.3      52.6       0       2      52      37    1013    0.00
    04/29/2016 01:10      78    46.9      8.88        53.4      53.6      52.6       0       2      32      40    1013    0.00
    04/29/2016 01:20      78    46.4      8.88        53.0      53.6      52.6       0       1      42      35    1013    0.00
    04/29/2016 01:30      79    46.4      8.88        52.8      53.6      52.5       1       3      49      36    1013    0.00
    04/29/2016 01:40      77    46.7      8.88        53.4      53.7      52.5       2       3      53      50    1013    0.00
    04/29/2016 01:50      77    46.4      8.88        53.5      53.7      52.5       1       4      19      44    1014    0.00
    04/29/2016 02:00      76    46.4      8.88        53.8      53.9      52.5       3       5      47      58    1014    0.00
    04/29/2016 02:10      76    46.2      8.88        53.6      53.9      52.5       2       4      41      37    1013    0.00
    04/29/2016 02:20      76    46.3      8.88        53.6      53.9      52.5       2       4      56      48    1014    0.00
    04/29/2016 02:30      76    46.5      8.88        53.8      54.0      52.5       0       3      61      56    1014    0.00
    04/29/2016 02:40      76    46.5      8.88        53.9      54.0      52.5       1       2      60      57    1014    0.00
    04/29/2016 02:50      76    46.4      8.88        53.7      54.0      52.5       0       2      55      41    1014    0.00
    04/29/2016 03:00      76    46.5      8.88        53.7      54.0      52.5       1       3      71      53    1014    0.00
    04/29/2016 03:10      76    46.3      8.88        53.6      54.0      52.5       2       4      50      63    1014    0.00
    04/29/2016 03:20      77    46.2      8.88        53.3      54.0      52.5       0       2      40      56    1014    0.00
    04/29/2016 03:30      77    46.1      8.88        53.1      54.0      52.5       0       2      76      95    1014    0.00
    04/29/2016 03:40      78    46.0      8.88        52.8      54.0      52.5       0       3      72      80    1014    0.00
    04/29/2016 03:50      79    46.2      8.88        52.7      54.0      52.5       0       2      71      71    1014    0.00
    04/29/2016 04:00      79    46.0      8.88        52.5      54.0      52.2       0       0       0      91    1014    0.00
    04/29/2016 04:10      80    46.0      8.88        52.1      54.0      51.8       0       1      46      53    1014    0.00
    04/29/2016 04:20      81    46.0      8.88        51.8      54.0      51.5       0       1      15      18    1014    0.00
    04/29/2016 04:30      81    46.1      8.88        51.7      54.0      51.5       0       0       0     354    1014    0.00
    04/29/2016 04:40      81    45.9      8.88        51.5      54.0      51.2       0       0       0     100    1014    0.00
    04/29/2016 04:50      82    45.7      8.88        51.1      54.0      50.9       0       0      53      59    1014    0.00
    04/29/2016 05:00      81    46.3      8.88        51.6      54.0      50.9       0       0      60      65    1014    0.00
    04/29/2016 05:10      81    46.2      8.88        51.8      54.0      50.9       0       2      45      43    1014    0.00
    04/29/2016 05:20      79    46.4      8.88        52.3      54.0      50.9       0       2      50      39    1014    0.00
    04/29/2016 05:30      79    46.4      8.88        52.7      54.0      50.9       0       0       7       5    1014    0.00
    04/29/2016 05:40      78    46.5      8.88        53.1      54.0      50.9       0       2      37      36    1014    0.00
    04/29/2016 05:50      76    46.5      8.88        53.6      54.0      50.9       0       2      73      85    1014    0.00
    04/29/2016 06:00      74    46.2      8.88        53.9      54.2      50.9       0       2      73     111    1015    0.00
    04/29/2016 06:10      74    46.3      8.88        54.2      54.4      50.9       0       2      92      95    1015    0.00
    04/29/2016 06:20      73    45.9      8.88        54.3      54.5      50.9       1       4      65      83    1015    0.00
    04/29/2016 06:30      73    45.8      8.88        54.3      54.6      50.9       0       3     114     123    1015    0.00
    04/29/2016 06:40      72    46.0      8.88        54.7      54.9      50.9       2       5     119     149    1015    0.00
    04/29/2016 06:50      72    45.9      8.88        54.8      55.1      50.9       0       2     124     171    1015    0.00
    04/29/2016 07:00      71    45.9      8.88        54.9      55.2      50.9       0       2     218     208    1015    0.00
    04/29/2016 07:10      70    45.8      8.88        54.9      55.3      50.9       1       3     102      87    1015    0.00
    04/29/2016 07:20      69    45.7      8.88        55.3      55.5      50.9       2       5      94      95    1015    0.00
    04/29/2016 07:30      69    45.6      8.88        55.5      55.9      50.9       1       5      83      97    1015    0.00
    04/29/2016 07:40      68    45.7      8.88        55.8      56.1      50.9       2       4     135     123    1015    0.00
    04/29/2016 07:50      68    45.8      8.88        56.0      56.6      50.9       0       2      98      49    1015    0.00
    04/29/2016 08:00      69    45.7      8.88        56.3      56.6      50.9       3       5     116      89    1015    0.00
    04/29/2016 08:10      65    45.6      8.88        57.0      57.4      50.9       2       6     107      96    1016    0.00
    04/29/2016 08:20      64    45.3      8.88        57.3      57.6      50.9       1       4      67      78    1016    0.00
    04/29/2016 08:30      64    45.2      8.88        57.2      57.6      50.9       2       5      91      98    1016    0.00
    04/29/2016 08:40      66    45.2      8.88        56.7      57.6      50.9       0       2     271     308    1016    0.00
    04/29/2016 08:50      63    45.3      8.88        57.1      57.9      50.9       2       5      69      60    1016    0.00
    04/29/2016 09:00      63    45.7      8.88        58.6      59.0      50.9       2       5     177     161    1016    0.00
    04/29/2016 09:10      58    45.8      8.88        59.7      60.5      50.9       2       3     269     189    1016    0.00
    04/29/2016 09:20      58    45.6      8.88        60.7      61.2      50.9       2       6     258     246    1016    0.00
    04/29/2016 09:30      56    45.2      8.88        60.6      61.2      50.9       1       5     234     244    1016    0.00
    04/29/2016 09:40      52    45.5      8.88        61.4      63.2      50.9       1       5     335     111    1016    0.00
    04/29/2016 09:50      54    45.4      8.88        62.8      63.8      50.9       3       6      94      76    1015    0.00
    04/29/2016 10:00      55    45.4      8.88        62.5      63.8      50.9       3       6     110     150    1015    0.00
    04/29/2016 10:10      52    45.4      8.88        63.1      63.8      50.9       3       7     190     156    1015    0.00
    04/29/2016 10:20      51    45.5      8.88        62.9      63.8      50.9       2       6     189     183    1015    0.00
    04/29/2016 10:30      51    45.4      8.88        63.5      64.0      50.9       3       8     222     174    1015    0.00
    04/29/2016 10:40      49    45.7      8.88        64.3      64.9      50.9       2       6      71     162    1015    0.00
    04/29/2016 10:50      47    46.2      8.88        65.2      66.2      50.9       3       8     173     197    1015    0.00
    04/29/2016 11:00      47    45.3      8.88        66.0      66.4      50.9       2       4     112     156    1015    0.00
    04/29/2016 11:10      47    45.8      8.88        66.5      66.8      50.9       4       7     162     164    1015    0.00
    04/29/2016 11:20      44    45.5      8.88        67.4      68.5      50.9       3       7     177     142    1015    0.00
    04/29/2016 11:30      45    45.0      8.88        67.1      68.5      50.9       2       5     182     154    1014    0.00
    04/29/2016 11:40      45    46.0      8.88        68.3      69.1      50.9       3       8     128     167    1014    0.00
    04/29/2016 11:50      44    45.7      8.88        69.1      69.4      50.9       2       6     196     165    1014    0.00
    04/29/2016 12:00      43    45.9      8.88        69.4      70.4      50.9       3       7      92      85    1014    0.00
    04/29/2016 12:10      43    46.4      8.88        69.1      70.4      50.9       5      13     133     146    1014    0.00
    04/29/2016 12:20      42    46.9      8.88        69.9      70.9      50.9       4      11     146     166    1014    0.00
    04/29/2016 12:30      44    47.5      8.88        69.8      70.9      50.9       6      11     166     144    1014    0.00
    04/29/2016 12:40      43    47.0      8.88        70.3      70.9      50.9       4       8     122      84    1014    0.00
    04/29/2016 12:50      45    47.3      8.88        70.3      71.2      50.9       5      10     173     153    1013    0.00
    04/29/2016 13:00      42    47.1      8.88        71.0      71.7      50.9       5      16     134     163    1013    0.00
    04/29/2016 13:10      44    46.8      8.88        70.0      71.7      50.9       5      11     127     154    1013    0.00
    04/29/2016 13:20      46    46.8      8.88        70.1      71.7      50.9       4       9     113     160    1013    0.00
    04/29/2016 13:30      42    47.2      8.88        70.2      71.7      50.9       4       8     141     128    1013    0.00
    04/29/2016 13:40      43    47.0      8.88        70.9      71.9      50.9       4      10     114      70    1013    0.00
    04/29/2016 13:50      43    47.4      8.88        70.5      71.9      50.9       6      11     134     178    1013    0.00
    04/29/2016 14:00      43    47.1      8.88        70.5      71.9      50.9       6      11     134     101    1013    0.00
    04/29/2016 14:10      45    47.1      8.88        70.2      71.9      50.9       5      11     133     133    1013    0.00
    04/29/2016 14:20      46    46.8      8.88        69.7      71.9      50.9       6      12     116      97    1013    0.00
    04/29/2016 14:30      46    47.1      8.88        69.6      71.9      50.9       5      11     120      74    1013    0.00
    04/29/2016 14:40      46    46.9      8.88        69.9      71.9      50.9       6      12     130     146    1012    0.00
    04/29/2016 14:50      45    47.1      8.88        69.4      71.9      50.9       6      11     139     147    1012    0.00
    04/29/2016 15:00      45    46.9      8.88        69.3      71.9      50.9       5      11     140     154    1012    0.00
    04/29/2016 15:10      44    46.6      8.88        69.2      71.9      50.9       5      11     120     133    1012    0.00
    04/29/2016 15:20      44    46.6      8.88        69.2      71.9      50.9       5      11     114     121    1012    0.00
    04/29/2016 15:30      44    46.8      8.88        69.3      71.9      50.9       5      11     125     128    1012    0.00
    04/29/2016 15:40      45    46.5      8.88        68.8      71.9      50.9       5      11     117     123    1012    0.00
    04/29/2016 15:50      44    46.6      8.88        69.1      71.9      50.9       5      11     130      89    1012    0.00
    04/29/2016 16:00      46    46.5      8.88        68.3      71.9      50.9       4      11     114     154    1012    0.00
    04/29/2016 16:10      48    46.6      8.88        67.9      71.9      50.9       5       9     117     143    1011    0.00
    04/29/2016 16:20      47    46.4      8.88        67.8      71.9      50.9       4       9     106      68    1011    0.00
    04/29/2016 16:30      46    46.7      8.88        68.1      71.9      50.9       4       8     123     135    1011    0.00
    04/29/2016 16:40      47    46.4      8.88        67.3      71.9      50.9       4       8     120      87    1011    0.00
    04/29/2016 16:50      48    46.6      8.88        67.4      71.9      50.9       6      11     152     150    1011    0.00
    04/29/2016 17:00      47    46.4      8.88        67.0      71.9      50.9       4       8     136     133    1011    0.00
    04/29/2016 17:10      49    46.1      8.88        66.4      71.9      50.9       4      10      96      89    1011    0.00
    04/29/2016 17:20      49    46.2      8.88        66.0      71.9      50.9       3       8      97      88    1011    0.00
    04/29/2016 17:30      50    46.3      8.88        65.6      71.9      50.9       4       8     123     124    1011    0.00
    04/29/2016 17:40      50    46.3      8.88        65.3      71.9      50.9       4       9     134      88    1011    0.00
    04/29/2016 17:50      51    46.2      8.88        65.0      71.9      50.9       4       9     106      89    1011    0.00
    04/29/2016 18:00      52    46.1      8.88        64.6      71.9      50.9       3       7     118      76    1011    0.00
    04/29/2016 18:10      52    46.1      8.88        63.8      71.9      50.9       3       7     104      85    1011    0.00
    04/29/2016 18:20      54    45.9      8.88        63.3      71.9      50.9       3       7      93     105    1011    0.00
    04/29/2016 18:30      55    46.1      8.88        62.5      71.9      50.9       0       2     205     109    1011    0.00
    04/29/2016 18:40      56    46.1      8.88        62.0      71.9      50.9       1       4     185     258    1011    0.00
    04/29/2016 18:50      57    46.0      8.88        61.4      71.9      50.9       1       5     185     257    1011    0.00
    04/29/2016 19:00      58    45.9      8.88        61.1      71.9      50.9       0       2     162     185    1011    0.00
    04/29/2016 19:10      58    46.0      8.88        61.0      71.9      50.9       0       2     321     308    1011    0.00
    04/29/2016 19:20      60    46.0      8.88        60.6      71.9      50.9       0       3     236     285    1011    0.00
    04/29/2016 19:30      61    46.3      8.88        60.0      71.9      50.9       0       3     291     297    1011    0.00
    04/29/2016 19:40      62    46.3      8.88        59.5      71.9      50.9       0       0       0     297    1011    0.00
    04/29/2016 19:50      62    46.5      8.88        59.0      71.9      50.9       0       4     341      38    1011    0.00
    04/29/2016 20:00      61    45.9      8.88        59.3      71.9      50.9       2       5      88      77    1011    0.00
    04/29/2016 20:10      61    45.9      8.88        59.2      71.9      50.9       1       4     106      72    1011    0.00
    04/29/2016 20:20      62    45.8      8.88        58.9      71.9      50.9       0       3      98      90    1011    0.00
    04/29/2016 20:30      62    45.8      8.88        58.7      71.9      50.9       1       4      98     107    1011    0.00
    04/29/2016 20:40      63    45.8      8.88        58.4      71.9      50.9       2       4      99      77    1011    0.00
    04/29/2016 20:50      65    46.0      8.88        58.2      71.9      50.9       3       5      94     112    1011    0.00
    04/29/2016 21:00      66    46.1      8.88        57.8      71.9      50.9       2       7     100      86    1011    0.00
    04/29/2016 21:10      67    46.5      8.88        57.5      71.9      50.9       2       5      94     101    1011    0.00
    04/29/2016 21:20      68    46.6      8.88        57.3      71.9      50.9       2       5      78      84    1011    0.00
    04/29/2016 21:30      68    46.7      8.88        57.2      71.9      50.9       2       6      86     134    1011    0.00
    04/29/2016 21:40      69    46.8      8.88        56.9      71.9      50.9       1       4     100      81    1011    0.00
    04/29/2016 21:50      70    46.8      8.88        56.6      71.9      50.9       2       5      96      98    1011    0.00
    04/29/2016 22:00      70    46.8      8.88        56.5      71.9      50.9       2       4      78      68    1011    0.00
    04/29/2016 22:10      70    46.7      8.88        56.3      71.9      50.9       0       3      88      92    1011    0.00
    04/29/2016 22:20      70    46.6      8.88        56.1      71.9      50.9       2       4      75      76    1011    0.00
    04/29/2016 22:30      70    46.4      8.88        55.9      71.9      50.9       1       4      77      70    1011    0.00
    04/29/2016 22:40      70    46.2      8.88        55.8      71.9      50.9       0       2      85      62    1011    0.00
    04/29/2016 22:50      71    46.4      8.88        55.6      71.9      50.9       0       3      70      63    1011    0.00
    04/29/2016 23:00      71    46.5      8.88        55.7      71.9      50.9       0       3      74      75    1011    0.00
    04/29/2016 23:10      72    46.6      8.88        55.7      71.9      50.9       1       4      79      74    1011    0.00
    04/29/2016 23:20      72    46.6      8.88        55.5      71.9      50.9       0       2      90      61    1010    0.00
    04/29/2016 23:30      73    46.5      8.88        55.1      71.9      50.9       0       2     109      79    1010    0.00
    04/29/2016 23:40      73    46.5      8.88        54.9      71.9      50.9       0       2     118     137    1010    0.00
    04/29/2016 23:50      74    46.4      8.88        54.6      71.9      50.9       1       3     138     137    1010    0.00
    04/30/2016 00:00      75    46.6      8.88        54.3      71.9      50.9       0       3     122     152    1010    0.00
    04/30/2016 00:10      76    46.5      8.88        54.0      54.5      53.7       0       2     143     157    1010    0.00
    04/30/2016 00:20      77    46.4      8.88        53.7      54.5      53.4       0       2     143     150    1010    0.00
    04/30/2016 00:30      77    46.7      8.88        53.6      54.5      53.3       0       5     110      90    1010    0.00
    04/30/2016 00:40      75    46.9      8.88        54.2      54.5      53.3       1       3     103      89    1010    0.00
    04/30/2016 00:50      76    47.0      8.88        54.4      54.7      53.3       2       7      93      95    1010    0.00
    04/30/2016 01:00      76    47.1      8.88        54.5      54.7      53.3       2       5      93      78    1010    0.00
    04/30/2016 01:10      76    47.3      8.88        54.6      54.8      53.3       1       5      93     114    1010    0.00
    04/30/2016 01:20      76    47.3      8.88        54.6      54.9      53.3       2       5      96      96    1010    0.00
    04/30/2016 01:30      75    47.0      8.88        54.5      54.9      53.3       3       5     100     110    1009    0.00
    04/30/2016 01:40      75    46.8      8.88        54.5      54.9      53.3       3       7      97      92    1009    0.00
    04/30/2016 01:50      76    46.8      8.88        54.3      54.9      53.3       2       7     101      79    1009    0.00
    04/30/2016 02:00      78    46.8      8.88        53.9      54.9      53.3       3       6     141     166    1009    0.00
    04/30/2016 02:10      79    46.9      8.88        53.5      54.9      53.2       2       6     146     146    1009    0.00
    04/30/2016 02:20      79    47.1      8.88        53.5      54.9      53.2       2       4     148     164    1009    0.00
    04/30/2016 02:30      78    47.1      8.88        53.6      54.9      53.2       0       3      99      88    1009    0.00
    04/30/2016 02:40      78    47.1      8.88        53.7      54.9      53.2       2       7     108     121    1009    0.00
    04/30/2016 02:50      78    47.2      8.88        53.8      54.9      53.2       4       7      87      81    1009    0.00
    04/30/2016 03:00      77    47.1      8.88        53.9      54.9      53.2       3       6      64      47    1009    0.00
    04/30/2016 03:10      77    47.1      8.88        54.0      54.9      53.2       3       5      82      98    1009    0.00
    04/30/2016 03:20      77    47.0      8.88        54.1      54.9      53.2       4       9      74      79    1009    0.00
    04/30/2016 03:30      77    47.0      8.88        54.1      54.9      53.2       3       6      77      54    1009    0.00
    04/30/2016 03:40      77    47.1      8.88        54.2      54.9      53.2       2       5      62      49    1009    0.00
    04/30/2016 03:50      77    47.1      8.88        54.1      54.9      53.2       3       6      48      56    1009    0.00
    04/30/2016 04:00      77    47.2      8.88        54.1      54.9      53.2       2       4      98      89    1009    0.00
    04/30/2016 04:10      78    47.1      8.88        54.0      54.9      53.2       2       3      87      94    1008    0.00
    04/30/2016 04:20      78    47.3      8.88        54.0      54.9      53.2       0       2      37      58    1009    0.00
    04/30/2016 04:30      78    47.3      8.88        54.1      54.9      53.2       0       3      81      96    1008    0.00
    04/30/2016 04:40      78    47.3      8.88        54.1      54.9      53.2       0       1     144      96    1008    0.00
    04/30/2016 04:50      79    47.5      8.88        54.0      54.9      53.2       3       5     170     163    1008    0.00
    04/30/2016 05:00      79    47.6      8.88        53.9      54.9      53.2       3       7     147     164    1008    0.00
    04/30/2016 05:10      80    47.7      8.88        53.9      54.9      53.2       0       4     136     148    1008    0.00
    04/30/2016 05:20      79    47.8      8.88        54.0      54.9      53.2       2       4      85      41    1009    0.00
    04/30/2016 05:30      79    47.9      8.88        54.2      54.9      53.2       3       5     108      75    1009    0.00
    04/30/2016 05:40      80    47.8      8.88        53.9      54.9      53.2       2       4     191     155    1009    0.00
    04/30/2016 05:50      80    47.8      8.88        53.7      54.9      53.2       1       4     191     184    1009    0.00
    04/30/2016 06:00      79    48.0      8.88        54.1      54.9      53.2       0       1     273     250    1009    0.00
    04/30/2016 06:10      79    47.9      8.88        54.3      54.9      53.2       0       2     204     177    1009    0.00
    04/30/2016 06:20      78    47.9      8.88        54.5      54.9      53.2       1       3     166     166    1009    0.00
    04/30/2016 06:30      77    47.9      8.88        54.9      55.2      53.2       1       4     167     141    1009    0.00
    04/30/2016 06:40      75    47.9      8.88        55.4      56.1      53.2       0       2      43     206    1009    0.00
    04/30/2016 06:50      73    47.9      8.88        56.2      56.6      53.2       1       3     124     145    1009    0.00
    04/30/2016 07:00      70    48.1      8.88        57.2      57.7      53.2       2       5     160     146    1009    0.00
    04/30/2016 07:10      71    47.6      8.88        57.1      57.7      53.2       3       5     147     165    1009    0.00
    04/30/2016 07:20      70    47.4      8.88        56.8      57.7      53.2       0       3     140     134    1009    0.00
    04/30/2016 07:30      66    47.3      8.88        57.8      58.8      53.2       1       3     178     111    1009    0.00
    04/30/2016 07:40      63    47.0      8.88        58.9      59.5      53.2       1       4     179     159    1009    0.00
    04/30/2016 07:50      61    47.0      8.88        60.1      60.7      53.2       2       6     128     153    1009    0.00
    04/30/2016 08:00      59    46.4      8.88        60.4      60.7      53.2       2       6     117     101    1009    0.00
    04/30/2016 08:10      61    46.2      8.88        59.9      60.7      53.2       3       5     188     157    1009    0.00
    04/30/2016 08:20      61    46.0      8.88        59.6      60.7      53.2       2       4     186     200    1009    0.00
    04/30/2016 08:30      53    46.1      8.88        61.3      62.9      53.2       1       4     163      54    1009    0.00
    04/30/2016 08:40      52    45.6      8.88        62.8      63.3      53.2       2       4      92      75    1009    0.00
    04/30/2016 08:50      53    45.0      8.88        62.6      63.3      53.2       2       5     105     128    1008    0.00
    04/30/2016 09:00      51    45.5      8.88        63.0      63.7      53.2       3       7     152     183    1008    0.00
    04/30/2016 09:10      51    45.4      8.88        63.7      64.7      53.2       3       6     170     161    1008    0.00
    04/30/2016 09:20      52    45.9      8.88        64.6      65.3      53.2       3       8     171     176    1008    0.00
    04/30/2016 09:30      50    45.7      8.88        65.2      65.6      53.2       5       9     184     156    1008    0.00
    04/30/2016 09:40      48    45.7      8.88        65.2      66.3      53.2       5      10     193     188    1008    0.00
    04/30/2016 09:50      44    44.8      8.88        66.1      66.7      53.2       5       9     201     177    1008    0.00
    04/30/2016 10:00      43    44.3      8.88        66.4      67.1      53.2       5       9     158     187    1008    0.00
    04/30/2016 10:10      43    43.8      8.88        67.1      68.1      53.2       5      11     181     187    1008    0.00
    04/30/2016 10:20      40    43.5      8.88        67.6      68.4      53.2       4       9     186     168    1008    0.00
    04/30/2016 10:30      40    43.2      8.88        68.6      69.5      53.2       6      11     154     146    1008    0.00
    04/30/2016 10:40      36    42.4      8.88        68.8      69.5      53.2       5       9     149     155    1008    0.00
    04/30/2016 10:50      35    41.8      8.88        70.2      70.8      53.2       3       9     125     165    1008    0.00
    04/30/2016 11:00      45    44.3      8.88        69.4      70.8      53.2       6      12     132     147    1008    0.00
    04/30/2016 11:10      45    45.8      8.88        69.0      70.8      53.2       7      13     146     145    1008    0.00
    04/30/2016 11:20      43    46.0      8.88        68.4      70.8      53.2       7      13     144     149    1008    0.00
    04/30/2016 11:30      42    46.0      8.88        68.7      70.8      53.2       6      11     151     173    1008    0.00
    04/30/2016 11:40      42    45.8      8.88        69.1      70.8      53.2       6      13     144     155    1008    0.00
    04/30/2016 11:50      43    45.6      8.88        69.1      70.8      53.2       5      11     139     172    1008    0.00
    04/30/2016 12:00      41    45.5      8.88        70.0      70.8      53.2       5      12     139     160    1007    0.00
    04/30/2016 12:10      45    44.8      8.88        68.7      70.8      53.2       4      13     131     134    1007    0.00
    04/30/2016 12:20      44    45.5      8.88        67.5      70.8      53.2       5      11     137     134    1007    0.00
    04/30/2016 12:30      41    45.3      8.88        69.6      70.8      53.2       4       8     135     127    1007    0.00
    04/30/2016 12:40      41    44.8      8.88        70.2      70.8      53.2       4      11     111     103    1007    0.00
    04/30/2016 12:50      40    45.2      8.88        69.9      71.2      53.2       4      13     149     165    1007    0.00
    04/30/2016 13:00      42    44.8      8.88        69.3      71.2      53.2       5      12     129     155    1007    0.00
    04/30/2016 13:10      42    44.7      8.88        68.7      71.2      53.2       3       7      98     122    1007    0.00
    04/30/2016 13:20      43    44.6      8.88        69.1      71.2      53.2       6      13     108      78    1007    0.00
    04/30/2016 13:30      41    44.8      8.88        69.1      71.2      53.2       5      11     121     150    1007    0.00
    04/30/2016 13:40      40    44.8      8.88        69.3      71.2      53.2       5      10     119     156    1007    0.00
    04/30/2016 13:50      41    44.1      8.88        69.4      71.2      53.2       5      12     107     126    1007    0.00
    04/30/2016 14:00      40    44.4      8.88        69.6      71.2      53.2       5      10     125     133    1007    0.00
    04/30/2016 14:10      41    43.8      8.88        68.9      71.2      53.2       6      11     114      74    1007    0.00
    04/30/2016 14:20      40    44.2      8.88        69.2      71.2      53.2       5      12     122      91    1007    0.00
    04/30/2016 14:30      40    43.6      8.88        69.0      71.2      53.2       5      10     119      79    1007    0.00
    04/30/2016 14:40      39    43.4      8.88        68.9      71.2      53.2       6      11      89      84    1007    0.00
    04/30/2016 14:50      39    43.9      8.88        69.3      71.2      53.2       5      10     116      86    1007    0.00
    04/30/2016 15:00      39    43.3      8.88        69.6      71.2      53.2       6      11      97      94    1007    0.00
    04/30/2016 15:10      39    43.2      8.88        69.3      71.2      53.2       5      10      97      79    1007    0.00
    04/30/2016 15:20      36    43.7      8.88        70.1      71.2      53.2       4       9     128     148    1006    0.00
    04/30/2016 15:30      39    43.1      8.88        69.5      71.2      53.2       6      11     104      84    1007    0.00
    04/30/2016 15:40      40    43.2      8.88        69.4      71.2      53.2       4      13     110      96    1007    0.00
    04/30/2016 15:50      38    43.6      8.88        69.6      71.2      53.2       4       8     141     170    1007    0.00
    04/30/2016 16:00      38    43.1      8.88        69.4      71.2      53.2       3       9     119     136    1007    0.00
    04/30/2016 16:10      40    43.3      8.88        68.8      71.2      53.2       2       7     123      95    1007    0.00
    04/30/2016 16:20      39    43.2      8.88        68.8      71.2      53.2       0       4     112     110    1007    0.00
    04/30/2016 16:30      40    43.1      8.88        68.8      71.2      53.2       2       7     144      60    1007    0.00
    04/30/2016 16:40      34    42.2      8.88        68.7      71.2      53.2       2      11     349     305    1007    0.00
    04/30/2016 16:50      33    40.8      8.88        68.9      71.2      53.2       3       9     257     240    1007    0.00
    04/30/2016 17:00      32    39.2      8.88        69.3      71.2      53.2       4      10     263     239    1007    0.00
    04/30/2016 17:10      32    38.3      8.88        68.7      71.2      53.2       5      10     277     253    1007    0.00
    04/30/2016 17:20      33    38.3      8.88        68.4      71.2      53.2       4      11     276     260    1007    0.00
    04/30/2016 17:30      34    38.4      8.88        68.1      71.2      53.2       5      10     273     257    1007    0.00
    04/30/2016 17:40      35    38.5      8.88        67.7      71.2      53.2       4      12     271     245    1007    0.00
    04/30/2016 17:50      36    39.0      8.88        67.4      71.2      53.2       4       7     269     264    1007    0.00
    04/30/2016 18:00      38    39.3      8.88        66.7      71.2      53.2       5      12     269     254    1007    0.00
    04/30/2016 18:10      39    39.9      8.88        66.2      71.2      53.2       4       9     271     262    1007    0.00
    04/30/2016 18:20      40    40.4      8.88        65.8      71.2      53.2       4       8     264     262    1007    0.00
    04/30/2016 18:30      40    40.4      8.88        65.4      71.2      53.2       4       9     267     239    1007    0.00
    04/30/2016 18:40      40    39.9      8.88        64.9      71.2      53.2       3       8     264     252    1007    0.00
    04/30/2016 18:50      40    39.9      8.88        64.5      71.2      53.2       2       6     267     250    1008    0.00
    04/30/2016 19:00      41    39.8      8.88        64.3      71.2      53.2       3       9     250     275    1008    0.00
    04/30/2016 19:10      42    40.0      8.88        63.9      71.2      53.2       0       3     269     261    1008    0.00
    04/30/2016 19:20      51    43.6      8.88        63.1      71.2      53.2       2       4     107      96    1008    0.00
    04/30/2016 19:30      52    44.4      8.88        62.3      71.2      53.2       2       5     106      86    1008    0.00
    04/30/2016 19:40      53    44.5      8.88        62.0      71.2      53.2       2       6     113      85    1008    0.00
    04/30/2016 19:50      54    44.5      8.88        61.7      71.2      53.2       2       5     102      90    1008    0.00
    04/30/2016 20:00      55    44.7      8.88        61.3      71.2      53.2       0       3     101      98    1008    0.00
    04/30/2016 20:10      55    44.8      8.88        61.0      71.2      53.2       1       4      90      85    1008    0.00
    04/30/2016 20:20      56    44.8      8.88        60.9      71.2      53.2       1       4      86     107    1008    0.00
    04/30/2016 20:30      57    44.9      8.88        60.6      71.2      53.2       0       1     117     156    1008    0.00
    04/30/2016 20:40      59    45.1      8.88        59.8      71.2      53.2       0       1     146     138    1009    0.00
    04/30/2016 20:50      60    45.2      8.88        59.4      71.2      53.2       0       0       0     128    1009    0.00
    04/30/2016 21:00      61    45.1      8.88        59.0      71.2      53.2       0       0       0     124    1009    0.00
    04/30/2016 21:10      61    45.5      8.88        58.5      71.2      53.2       0       0       0     173    1009    0.00
    04/30/2016 21:20      61    45.5      8.88        58.4      71.2      53.2       0       2      97      82    1009    0.00
    04/30/2016 21:30      61    45.6      8.88        58.9      71.2      53.2       0       2      87      83    1009    0.00
    04/30/2016 21:40      62    45.8      8.88        59.0      71.2      53.2       0       3      94      98    1009    0.00
    04/30/2016 21:50      61    45.8      8.88        58.8      71.2      53.2       0       2     100      97    1009    0.00
    04/30/2016 22:00      60    45.4      8.88        59.0      71.2      53.2       2       4      88      61    1009    0.00
    04/30/2016 22:10      60    45.1      8.88        58.9      71.2      53.2       3       6      87      81    1009    0.00
    04/30/2016 22:20      61    45.1      8.88        58.6      71.2      53.2       3       7      78      95    1009    0.00
    04/30/2016 22:30      61    44.9      8.88        58.4      71.2      53.2       3       6      69      82    1009    0.00
    04/30/2016 22:40      62    44.9      8.88        58.2      71.2      53.2       3       6      70      66    1009    0.00
    04/30/2016 22:50      63    45.2      8.88        57.9      71.2      53.2       2       4     100      72    1009    0.00
    04/30/2016 23:00      65    45.8      8.88        57.6      71.2      53.2       2       5      91      98    1009    0.00
    04/30/2016 23:10      67    46.1      8.88        57.3      71.2      53.2       0       3      97      60    1009    0.00
    04/30/2016 23:20      68    46.2      8.88        56.9      71.2      53.2       0       3      93      99    1010    0.00
    04/30/2016 23:30      69    46.4      8.88        56.7      71.2      53.2       2       4      62      67    1010    0.00
    04/30/2016 23:40      69    46.4      8.88        56.5      71.2      53.2       1       3      60      57    1010    0.00
    04/30/2016 23:50      69    46.4      8.88        56.4      71.2      53.2       1       4      39      26    1010    0.00
    05/01/2016 00:00      70    46.4      8.88        56.2      71.2      53.2       2       4      51      54    1010    0.00
    05/01/2016 00:10      70    46.4      8.88        56.1      56.3      55.9       2       4      70      50    1010    0.00
    05/01/2016 00:20      71    46.3      8.88        55.9      56.3      55.5       0       2      77      83    1010    0.00
    05/01/2016 00:30      71    46.4      8.88        55.6      56.3      55.5       0       2      78      84    1010    0.00
    05/01/2016 00:40      72    46.2      8.88        55.3      56.3      54.9       0       0      91      93    1010    0.00
    05/01/2016 00:50      73    46.1      8.88        54.8      56.3      54.6       0       1      48      26    1010    0.00
    05/01/2016 01:00      73    46.4      8.88        54.8      56.3      54.6       0       2      35      43    1009    0.00
    05/01/2016 01:10      73    46.3      8.88        54.8      56.3      54.5       0       1      21      43    1009    0.00
    05/01/2016 01:20      74    46.1      8.88        54.3      56.3      54.1       0       2      45      47    1009    0.00
    05/01/2016 01:30      74    46.0      8.88        54.1      56.3      54.0       0       2      71      87    1009    0.00
    05/01/2016 01:40      73    46.3      8.88        54.3      56.3      53.8       0       2      44      68    1009    0.00
    05/01/2016 01:50      74    46.1      8.88        54.4      56.3      53.8       0       0       4       4    1009    0.00
    05/01/2016 02:00      75    45.9      8.88        54.0      56.3      53.7       0       0       0     318    1009    0.00
    05/01/2016 02:10      74    46.0      8.88        53.9      56.3      53.7       0       0       0     297    1009    0.00
    05/01/2016 02:20      75    45.7      8.88        53.6      56.3      53.4       0       0       0     329    1009    0.00
    05/01/2016 02:30      75    45.6      8.88        53.5      56.3      53.3       0       0       0     331    1009    0.00
    05/01/2016 02:40      74    45.4      8.88        53.3      56.3      53.0       0       0      24      16    1009    0.00
    05/01/2016 02:50      72    45.0      8.88        53.5      56.3      53.0       0       2      24      57    1009    0.00
    05/01/2016 03:00      73    44.8      8.88        53.5      56.3      53.0       0       2       9      23    1009    0.00
    05/01/2016 03:10      73    45.0      8.88        53.4      56.3      53.0       0       3      25      13    1009    0.00
    05/01/2016 03:20      73    45.0      8.88        53.4      56.3      53.0       0       1      23      32    1010    0.00
    05/01/2016 03:30      74    45.2      8.88        53.3      56.3      53.0       2       3      47      31    1010    0.00
    05/01/2016 03:40      73    45.2      8.88        53.6      56.3      53.0       0       2      37      41    1010    0.00
    05/01/2016 03:50      73    45.1      8.88        53.4      56.3      53.0       0       2      19     342    1010    0.00
    05/01/2016 04:00      74    45.0      8.88        53.1      56.3      52.9       0       1       0      31    1010    0.00
    05/01/2016 04:10      74    45.0      8.88        53.0      56.3      52.7       0       2      12      68    1010    0.00
    05/01/2016 04:20      75    45.0      8.88        52.8      56.3      52.6       0       2      37      55    1010    0.00
    05/01/2016 04:30      75    44.8      8.88        52.5      56.3      52.1       0       0      69      88    1010    0.00
    05/01/2016 04:40      76    45.0      8.88        52.4      56.3      52.1       1       3      71      77    1010    0.00
    05/01/2016 04:50      76    45.7      8.88        52.9      56.3      52.1       0       0      48      50    1010    0.00
    05/01/2016 05:00      77    45.8      8.88        52.9      56.3      52.1       0       2      42      32    1010    0.00
    05/01/2016 05:10      75    46.0      8.88        53.4      56.3      52.1       0       3      21      31    1010    0.00
    05/01/2016 05:20      74    45.9      8.88        53.9      56.3      52.1       0       3       0     334    1010    0.00
    05/01/2016 05:30      74    45.8      8.88        54.1      56.3      52.1       0       2     329     347    1010    0.00
    05/01/2016 05:40      75    46.2      8.88        54.0      56.3      52.1       0       1     345     345    1010    0.00
    05/01/2016 05:50      75    47.0      8.88        54.6      56.3      52.1       0       0      44      74    1011    0.00
    05/01/2016 06:00      76    47.5      8.88        55.0      56.3      52.1       0       0      64     108    1011    0.00
    05/01/2016 06:10      77    48.1      8.88        55.3      56.3      52.1       0       2      79      75    1011    0.00
    05/01/2016 06:20      76    48.2      8.88        55.5      56.3      52.1       0       2     124      97    1011    0.00
    05/01/2016 06:30      75    48.0      8.88        55.6      56.3      52.1       2       4      71      88    1011    0.00
    05/01/2016 06:40      75    48.0      8.88        55.8      56.3      52.1       0       3      40       9    1011    0.00
    05/01/2016 06:50      74    48.1      8.88        56.1      56.4      52.1       2       5      66      78    1011    0.00
    05/01/2016 07:00      73    48.0      8.88        56.3      56.5      52.1       2       4      56      59    1011    0.00
    05/01/2016 07:10      72    47.9      8.88        56.5      56.8      52.1       2       5      93      91    1012    0.00
    05/01/2016 07:20      72    47.9      8.88        56.7      56.9      52.1       3       5      60      53    1012    0.00
    05/01/2016 07:30      70    47.9      8.88        57.1      57.7      52.1       3       6      75     104    1012    0.00
    05/01/2016 07:40      71    47.9      8.88        57.3      57.7      52.1       2       4     153     164    1012    0.00
    05/01/2016 07:50      69    47.8      8.88        57.4      57.8      52.1       2       5     106     105    1012    0.00
    05/01/2016 08:00      68    48.0      8.88        58.0      58.4      52.1       2       5     144     162    1012    0.00
    05/01/2016 08:10      67    47.7      8.88        58.4      58.7      52.1       2       5     100     158    1012    0.00
    05/01/2016 08:20      62    47.9      8.88        59.5      60.5      52.1       2       6     104      96    1012    0.00
    05/01/2016 08:30      60    47.4      8.88        60.7      61.4      52.1       2       4      63      51    1012    0.00
    05/01/2016 08:40      60    47.3      8.88        61.4      61.8      52.1       2       5      72      53    1012    0.00
    05/01/2016 08:50      59    47.4      8.88        61.7      62.1      52.1       3       6      86      76    1012    0.00
    05/01/2016 09:00      57    48.0      8.88        63.1      63.8      52.1       2       6     135     133    1012    0.00
    05/01/2016 09:10      54    47.6      8.88        63.4      64.0      52.1       3       8     171     166    1012    0.00
    05/01/2016 09:20      58    47.1      8.88        63.5      64.0      52.1       4       8     165     145    1012    0.00
    05/01/2016 09:30      50    46.9      8.88        65.0      65.6      52.1       2       6     125     142    1012    0.00
    05/01/2016 09:40      50    46.5      8.88        65.1      66.3      52.1       2       7     117     158    1012    0.00
    05/01/2016 09:50      53    47.0      8.88        65.9      66.9      52.1       4       8     185     198    1012    0.00
    05/01/2016 10:00      46    46.2      8.88        65.9      66.9      52.1       4       7     131     161    1012    0.00
    05/01/2016 10:10      48    46.1      8.88        65.9      66.9      52.1       2       5     169     191    1012    0.00
    05/01/2016 10:20      47    46.3      8.88        67.1      67.8      52.1       3       7      98      87    1012    0.00
    05/01/2016 10:30      46    46.8      8.88        67.3      67.8      52.1       3       8     127     166    1012    0.00
    05/01/2016 10:40      46    46.5      8.88        67.8      68.4      52.1       3       6      51     110    1012    0.00
    05/01/2016 10:50      44    46.9      8.88        68.5      68.9      52.1       3       9     137      90    1012    0.00
    05/01/2016 11:00      44    46.2      8.88        68.5      69.1      52.1       2       5      65      54    1012    0.00
    05/01/2016 11:10      45    46.8      8.88        69.4      69.9      52.1       3       8     129     165    1012    0.00
    05/01/2016 11:20      43    46.0      8.88        70.0      70.5      52.1       3       7      94      91    1012    0.00
    05/01/2016 11:30      41    46.6      8.88        70.5      71.4      52.1       4      10     161     154    1011    0.00
    05/01/2016 11:40      42    46.0      8.88        70.8      71.4      52.1       4       9     114     126    1011    0.00
    05/01/2016 11:50      42    46.1      8.88        71.4      71.8      52.1       4       8     165     155    1011    0.00
    05/01/2016 12:00      39    46.1      8.88        71.8      72.2      52.1       5      10     121     150    1011    0.00
    05/01/2016 12:10      39    45.6      8.88        71.7      72.2      52.1       5       9     105      76    1011    0.00
    05/01/2016 12:20      39    46.0      8.88        71.9      72.8      52.1       5      11      96     173    1011    0.00
    05/01/2016 12:30      42    47.5      8.88        73.0      73.5      52.1       4       8     125     141    1011    0.00
    05/01/2016 12:40      40    47.9      8.88        73.0      73.6      52.1       4      10     133     142    1011    0.00
    05/01/2016 12:50      42    48.5      8.88        72.6      73.8      52.1       5       9     146     166    1011    0.00
    05/01/2016 13:00      41    48.8      8.88        73.6      74.2      52.1       6      13     119      68    1011    0.00
    05/01/2016 13:10      43    48.7      8.88        72.8      74.2      52.1       6      12     141     145    1011    0.00
    05/01/2016 13:20      46    49.2      8.88        72.6      74.2      52.1       6      12     124     160    1011    0.00
    05/01/2016 13:30      46    50.4      8.88        72.2      74.2      52.1       7      13     155     146    1011    0.00
    05/01/2016 13:40      46    50.1      8.88        72.0      74.2      52.1       7      13     142     142    1011    0.00
    05/01/2016 13:50      47    50.4      8.88        72.4      74.2      52.1       8      14     145     170    1011    0.00
    05/01/2016 14:00      49    50.0      8.88        71.6      74.2      52.1       7      13     145     131    1011    0.00
    05/01/2016 14:10      45    49.6      8.88        71.7      74.2      52.1       6      12     148     149    1011    0.00
    05/01/2016 14:20      44    49.6      8.88        72.6      74.2      52.1       5      12     146     172    1011    0.00
    05/01/2016 14:30      44    49.0      8.88        72.5      74.2      52.1       6      10     154     158    1011    0.00
    05/01/2016 14:40      41    48.4      8.88        72.3      74.2      52.1       4       8     124     145    1011    0.00
    05/01/2016 14:50      41    48.1      8.88        72.9      74.2      52.1       4      11     120      83    1011    0.00
    05/01/2016 15:00      43    48.1      8.88        72.8      74.2      52.1       4       9     118     162    1011    0.00
    05/01/2016 15:10      42    48.1      8.88        72.8      74.2      52.1       5       9     125     177    1011    0.00
    05/01/2016 15:20      41    47.6      8.88        72.5      74.2      52.1       3      10      82      79    1011    0.00
    05/01/2016 15:30      41    48.3      8.88        72.6      74.2      52.1       5       9     176     167    1011    0.00
    05/01/2016 15:40      40    48.0      8.88        73.2      74.2      52.1       4      10     178     141    1011    0.00
    05/01/2016 15:50      39    47.4      8.88        73.6      74.3      52.1       4      10     158     163    1011    0.00
    05/01/2016 16:00      39    47.0      8.88        73.2      74.3      52.1       4      12     130     154    1011    0.00
    05/01/2016 16:10      39    46.9      8.88        73.0      74.3      52.1       4      10     116     130    1011    0.00
    05/01/2016 16:20      40    47.2      8.88        72.8      74.3      52.1       5       8     141     141    1011    0.00
    05/01/2016 16:30      41    47.3      8.88        72.7      74.3      52.1       5      11     136     156    1011    0.00
    05/01/2016 16:40      41    47.2      8.88        71.8      74.3      52.1       5      10     136     146    1011    0.00
    05/01/2016 16:50      41    46.6      8.88        71.5      74.3      52.1       6      11      95      98    1011    0.00
    05/01/2016 17:00      41    46.7      8.88        71.3      74.3      52.1       5      10     113      71    1011    0.00
    05/01/2016 17:10      44    46.9      8.88        70.6      74.3      52.1       6      10     140     175    1011    0.00
    05/01/2016 17:20      44    47.2      8.88        70.1      74.3      52.1       4      10     131     155    1011    0.00
    05/01/2016 17:30      45    47.0      8.88        70.0      74.3      52.1       4       8     109     125    1011    0.00
    05/01/2016 17:40      46    47.1      8.88        69.0      74.3      52.1       4       9     121     136    1011    0.00
    05/01/2016 17:50      47    47.1      8.88        68.3      74.3      52.1       4       9     127     161    1011    0.00
    05/01/2016 18:00      49    47.3      8.88        67.7      74.3      52.1       4       8     139     172    1011    0.00
    05/01/2016 18:10      50    47.5      8.88        66.9      74.3      52.1       4       7     130     148    1011    0.00
    05/01/2016 18:20      52    47.8      8.88        66.4      74.3      52.1       3       8     125     135    1011    0.00
    05/01/2016 18:30      53    47.8      8.88        65.8      74.3      52.1       3       7     102      76    1012    0.00
    05/01/2016 18:40      54    48.0      8.88        65.3      74.3      52.1       3       6     101      97    1012    0.00
    05/01/2016 18:50      55    47.9      8.88        64.7      74.3      52.1       4       9      97      92    1012    0.00
    05/01/2016 19:00      56    47.6      8.88        63.9      74.3      52.1       4       8      95      93    1012    0.00
    05/01/2016 19:10      58    47.9      8.88        63.5      74.3      52.1       3       7      94      91    1012    0.00
    05/01/2016 19:20      59    48.2      8.88        62.8      74.3      52.1       2       5     100      81    1013    0.00
    05/01/2016 19:30      61    48.2      8.88        62.3      74.3      52.1       1       4     105      90    1013    0.00
    05/01/2016 19:40      60    48.1      8.88        62.0      74.3      52.1       2       4      91      83    1013    0.00
    05/01/2016 19:50      61    48.0      8.88        61.8      74.3      52.1       2       5     104      98    1013    0.00
    05/01/2016 20:00      62    48.2      8.88        61.5      74.3      52.1       3       4      90      85    1013    0.00
    05/01/2016 20:10      63    48.4      8.88        61.2      74.3      52.1       3       6      77      69    1014    0.00
    05/01/2016 20:20      65    48.5      8.88        60.9      74.3      52.1       4       6      74      71    1014    0.00
    05/01/2016 20:30      65    48.8      8.88        60.6      74.3      52.1       3       6      72      84    1014    0.00
    05/01/2016 20:40      67    49.0      8.88        60.3      74.3      52.1       4       8      62      63    1014    0.00
    05/01/2016 20:50      68    49.1      8.88        59.9      74.3      52.1       3       6      67      56    1014    0.00
    05/01/2016 21:00      68    49.1      8.88        59.5      74.3      52.1       3       8      58      47    1014    0.00
    05/01/2016 21:10      69    49.2      8.88        59.6      74.3      52.1       3       6      64      65    1014    0.00
    05/01/2016 21:20      70    49.4      8.88        59.4      74.3      52.1       3       6      68      55    1015    0.00
    05/01/2016 21:30      71    49.6      8.88        59.3      74.3      52.1       2       5      56      63    1014    0.00
    05/01/2016 21:40      71    49.7      8.88        59.0      74.3      52.1       3       5      49      34    1014    0.00
    05/01/2016 21:50      72    49.8      8.88        58.9      74.3      52.1       2       3      63      87    1014    0.00
    05/01/2016 22:00      72    49.8      8.88        58.9      74.3      52.1       1       3      75      48    1014    0.00
    05/01/2016 22:10      72    49.8      8.88        58.8      74.3      52.1       1       3      70      57    1014    0.00
    05/01/2016 22:20      72    49.8      8.88        58.6      74.3      52.1       0       2     116     126    1014    0.00
    05/01/2016 22:30      74    49.8      8.88        58.3      74.3      52.1       2       3     120     108    1015    0.00
    05/01/2016 22:40      74    50.0      8.88        58.4      74.3      52.1       0       4      89     101    1015    0.00
    05/01/2016 22:50      74    50.0      8.88        58.4      74.3      52.1       2       4      91      96    1015    0.00
    05/01/2016 23:00      74    50.1      8.88        58.3      74.3      52.1       2       3      81      93    1015    0.00
    05/01/2016 23:10      74    50.1      8.88        58.3      74.3      52.1       1       2      75      53    1015    0.00
    05/01/2016 23:20      74    50.1      8.88        58.2      74.3      52.1       1       3      70      94    1015    0.00
    05/01/2016 23:30      74    50.2      8.88        58.2      74.3      52.1       2       4      68      72    1015    0.00
    05/01/2016 23:40      74    50.2      8.88        58.2      74.3      52.1       2       4      62      36    1015    0.00
    05/01/2016 23:50      75    50.2      8.88        58.2      74.3      52.1       3       6      61      72    1015    0.00
    05/02/2016 00:00      75    50.2      8.88        58.1      74.3      52.1       2       4      58      43    1015    0.00
    05/02/2016 00:10      75    50.1      8.88        58.0      58.2      57.7       2       5      55      47    1015    0.00
    05/02/2016 00:20      75    50.1      8.88        57.8      58.2      57.6       2       4      73      70    1015    0.00
    05/02/2016 00:30      75    50.1      8.88        57.8      58.2      57.5       0       2      86      64    1015    0.00
    05/02/2016 00:40      76    50.0      8.88        57.6      58.2      57.3       0       0      77     110    1015    0.00
    05/02/2016 00:50      76    50.1      8.88        57.5      58.2      57.3       0       2      47      48    1014    0.00
    05/02/2016 01:00      76    50.2      8.88        57.6      58.2      57.3       0       2     164     178    1014    0.00
    05/02/2016 01:10      77    50.1      8.88        57.4      58.2      57.1       0       0     159     160    1014    0.00
    05/02/2016 01:20      77    50.1      8.88        57.2      58.2      57.1       1       2     151     159    1014    0.00
    05/02/2016 01:30      77    50.1      8.88        57.2      58.2      57.1       0       2     149     145    1014    0.00
    05/02/2016 01:40      77    50.0      8.88        57.2      58.2      57.0       0       2     118     143    1014    0.00
    05/02/2016 01:50      77    49.9      8.88        57.0      58.2      56.7       0       2     135     135    1014    0.00
    05/02/2016 02:00      78    49.7      8.88        56.6      58.2      56.3       0       2     132     144    1014    0.00
    05/02/2016 02:10      78    49.6      8.88        56.2      58.2      55.9       0       1      94      86    1014    0.00
    05/02/2016 02:20      79    49.4      8.88        55.8      58.2      55.4       0       3     132     140    1014    0.00
    05/02/2016 02:30      80    49.2      8.88        55.3      58.2      55.1       0       2     152     136    1014    0.00
    05/02/2016 02:40      81    49.4      8.88        55.1      58.2      54.9       0       0       0     168    1014    0.00
    05/02/2016 02:50      82    49.6      8.88        55.1      58.2      54.9       0       0       0     124    1014    0.00
    05/02/2016 03:00      82    49.6      8.88        55.0      58.2      54.9       0       0       0     298    1014    0.00
    05/02/2016 03:10      82    49.7      8.88        55.0      58.2      54.8       0       0       0     298    1014    0.00
    05/02/2016 03:20      82    49.7      8.88        55.0      58.2      54.8       0       0       0       8    1014    0.00
    05/02/2016 03:30      82    49.2      8.88        54.7      58.2      54.3       0       0       0     340    1014    0.00
    05/02/2016 03:40      83    49.1      8.88        54.4      58.2      54.2       0       0       0     327    1014    0.00
    05/02/2016 03:50      84    49.4      8.88        54.4      58.2      54.1       0       0       0     327    1014    0.00
    05/02/2016 04:00      84    49.2      8.88        54.0      58.2      53.8       0       0       0     327    1014    0.00
    05/02/2016 04:10      84    49.2      8.88        53.9      58.2      53.7       0       0       0     302    1014    0.00
    05/02/2016 04:20      85    49.2      8.88        53.8      58.2      53.5       0       0       0     298    1014    0.00
    05/02/2016 04:30      85    49.3      8.88        53.7      58.2      53.5       0       0       0     293    1014    0.00
    05/02/2016 04:40      85    49.4      8.88        53.8      58.2      53.5       0       0       0     327    1014    0.00
    05/02/2016 04:50      84    49.3      8.88        53.8      58.2      53.5       0       0       0     326    1014    0.00
    05/02/2016 05:00      84    49.1      8.88        53.7      58.2      53.5       0       0       0     326    1015    0.00
    05/02/2016 05:10      84    48.7      8.88        53.4      58.2      53.2       0       0       0     322    1015    0.00
    05/02/2016 05:20      85    48.8      8.88        53.3      58.2      53.1       0       0       0     320    1015    0.00
    05/02/2016 05:30      85    49.1      8.88        53.5      58.2      53.1       0       0       0     280    1015    0.00
    05/02/2016 05:40      85    49.2      8.88        53.6      58.2      53.1       0       0       0     322    1015    0.00
    05/02/2016 05:50      84    49.5      8.88        54.1      58.2      53.1       0       0       0     321    1015    0.00
    05/02/2016 06:00      83    50.1      8.88        55.0      58.2      53.1       0       0     262     262    1015    0.00
    05/02/2016 06:10      79    50.7      8.88        56.4      58.2      53.1       0       1     191     189    1015    0.00
    05/02/2016 06:20      76    50.0      8.88        57.1      58.2      53.1       2       3     195     192    1015    0.00
    05/02/2016 06:30      73    49.9      8.88        57.6      58.4      53.1       0       3     220     253    1015    0.00
    05/02/2016 06:40      71    49.5      8.88        58.4      58.9      53.1       0       3     210     244    1015    0.00
    05/02/2016 06:50      69    49.5      8.88        59.4      59.8      53.1       0       2     274     294    1015    0.00
    05/02/2016 07:00      67    49.6      8.88        60.0      60.6      53.1       0       2     157     258    1015    0.00
    05/02/2016 07:10      67    49.5      8.88        60.6      61.1      53.1       1       3     204     183    1015    0.00
    05/02/2016 07:20      63    49.9      8.88        61.8      62.8      53.1       0       2     184     171    1015    0.00
    05/02/2016 07:30      65    49.8      8.88        62.4      63.0      53.1       2       5     180     168    1015    0.00
    05/02/2016 07:40      65    49.6      8.88        61.5      63.0      53.1       2       4     156     137    1015    0.00
    05/02/2016 07:50      64    49.6      8.88        61.7      63.0      53.1       2       4     168     172    1015    0.00
    05/02/2016 08:00      62    50.1      8.88        63.1      64.1      53.1       2       6     141     185    1016    0.00
    05/02/2016 08:10      61    49.8      8.88        63.0      64.1      53.1       2       5     188     168    1016    0.00
    05/02/2016 08:20      58    50.0      8.88        64.5      65.3      53.1       0       3     125     117    1016    0.00
    05/02/2016 08:30      57    49.9      8.88        65.2      65.6      53.1       2       4      95      55    1016    0.00
    05/02/2016 08:40      57    49.7      8.88        65.5      65.8      53.1       2       4      46      27    1016    0.00
    05/02/2016 08:50      55    49.9      8.88        66.1      66.7      53.1       0       2     334     334    1016    0.00
    05/02/2016 09:00      54    50.3      8.88        66.9      67.6      53.1       3       6     124      55    1015    0.00
    05/02/2016 09:10      52    49.9      8.88        68.0      68.3      53.1       2       4      30      88    1015    0.00
    05/02/2016 09:20      51    50.0      8.88        68.4      69.0      53.1       2       4      58      90    1015    0.00
    05/02/2016 09:30      50    49.9      8.88        69.4      70.0      53.1       2       5      71     112    1015    0.00
    05/02/2016 09:40      49    49.6      8.88        69.9      70.3      53.1       2       5     168     126    1015    0.00
    05/02/2016 09:50      46    49.3      8.88        70.8      71.2      53.1       3       8      86      87    1015    0.00
    05/02/2016 10:00      45    49.0      8.88        71.0      71.4      53.1       3       6     101      79    1015    0.00
    05/02/2016 10:10      43    48.6      8.88        71.2      72.0      53.1       2       6     113      93    1015    0.00
    05/02/2016 10:20      41    48.8      8.88        72.2      73.1      53.1       3       7     121     160    1015    0.00
    05/02/2016 10:30      43    49.0      8.88        73.2      73.8      53.1       4       7     156     172    1015    0.00
    05/02/2016 10:40      40    48.2      8.88        73.4      73.8      53.1       4       8     172     142    1015    0.00
    05/02/2016 10:50      41    47.9      8.88        73.6      74.1      53.1       3       8     150     166    1015    0.00
    05/02/2016 11:00      39    48.0      8.88        74.2      75.0      53.1       3       6     125     161    1015    0.00
    05/02/2016 11:10      40    47.8      8.88        75.2      76.0      53.1       2       6     162     132    1015    0.00
    05/02/2016 11:20      35    46.8      8.88        76.2      76.6      53.1       3       6     119      53    1015    0.00
    05/02/2016 11:30      36    46.6      8.88        76.5      77.1      53.1       3       8     136     161    1015    0.00
    05/02/2016 11:40      33    47.2      8.88        77.1      78.0      53.1       3       8     159     139    1014    0.00
    05/02/2016 11:50      35    46.6      8.88        77.3      78.0      53.1       3       8     158     130    1014    0.00
    05/02/2016 12:00      30    46.5      8.88        78.4      79.1      53.1       2       6     123     122    1014    0.00
    05/02/2016 12:10      32    45.5      8.88        79.1      79.6      53.1       2       5     210     198    1014    0.00
    05/02/2016 12:20      30    47.3      8.88        79.9      80.6      53.1       4      11     133     138    1014    0.00
    05/02/2016 12:30      30    47.8      8.88        80.9      81.7      53.1       4      10     129     158    1014    0.00
    05/02/2016 12:40      28    45.5      8.88        80.3      81.7      53.1       6      10     168     144    1014    0.00
    05/02/2016 12:50      26    42.2      8.88        81.1      81.8      53.1       4       8     132     133    1014    0.00
    05/02/2016 13:00      21    42.2      8.88        82.6      83.3      53.1       3      10     150     169    1014    0.00
    05/02/2016 13:10      21    39.0      8.88        82.3      83.3      53.1       5      10     132     162    1013    0.00
    05/02/2016 13:20      19    36.4      8.88        82.7      83.5      53.1       4      11     119     109    1013    0.00
    05/02/2016 13:30      17    36.1      8.88        83.1      83.5      53.1       5      10     126     176    1013    0.00
    05/02/2016 13:40      17    36.7      8.88        82.8      83.5      53.1       5      12     162     153    1013    0.00
    05/02/2016 13:50      20    37.4      8.88        83.0      83.9      53.1       6      11     164     159    1013    0.00
    05/02/2016 14:00      17    36.4      8.88        83.0      83.9      53.1       6      14     151     196    1013    0.00
    05/02/2016 14:10      18    35.3      8.88        83.3      83.9      53.1       4      10     133     162    1013    0.00
    05/02/2016 14:20      18    34.0      8.88        82.5      83.9      53.1       7      12     168     167    1013    0.00
    05/02/2016 14:30      16    33.9      8.88        83.9      84.4      53.1       4       9     135     155    1013    0.00
    05/02/2016 14:40      16    33.3      8.88        83.7      84.4      53.1       4      10     135     150    1013    0.00
    05/02/2016 14:50      24    33.6      8.88        83.7      84.4      53.1       5       9     137     156    1012    0.00
    05/02/2016 15:00      31    47.6      8.88        82.1      84.4      53.1       5      12     275     257    1012    0.00
    05/02/2016 15:10      33    47.6      8.88        80.4      84.4      53.1       7      16     275     268    1012    0.00
    05/02/2016 15:20      31    47.3      8.88        80.3      84.4      53.1       7      12     281     308    1012    0.00